Time;durP1;ratioP1;P1;durP2;ratioP2;P2;SDS_P1;SDS_P2;PMS_P1;PMS_P2;Temp;Humidity;BMP_temperature;BMP_pressure;BME280_temperature;BME280_humidity;BME280_pressure;Samples;Min_cycle;Max_cycle;Signal;HPM_P1;HPM_P2
2023/08/13 00:00:02;;;;;;;4.20;3.73;;;;;;;;;;4897395;29;20449;-67
2023/08/13 00:02:28;;;;;;;3.57;3.27;;;;;;;;;;4911501;29;20465;-68
2023/08/13 00:04:54;;;;;;;2.90;2.80;;;;;;;;;;4897072;28;20954;-71
2023/08/13 00:07:20;;;;;;;3.27;3.03;;;;;;;;;;4897306;29;20441;-69
2023/08/13 00:09:46;;;;;;;3.80;2.63;;;;;;;;;;4897379;28;20750;-68
2023/08/13 00:12:12;;;;;;;2.73;2.63;;;;;;;;;;4896871;28;20481;-69
2023/08/13 00:14:38;;;;;;;6.10;4.20;;;;;;;;;;4897240;29;20426;-69
2023/08/13 00:17:04;;;;;;;8.80;3.50;;;;;;;;;;4896976;29;20446;-71
2023/08/13 00:19:30;;;;;;;3.30;3.10;;;;;;;;;;4896671;29;20509;-68
2023/08/13 00:21:56;;;;;;;4.20;2.80;;;;;;;;;;4897115;29;20430;-68
2023/08/13 00:24:22;;;;;;;1.80;1.80;;;;;;;;;;4896747;29;20525;-68
2023/08/13 00:26:48;;;;;;;3.10;2.90;;;;;;;;;;4897016;28;20425;-68
2023/08/13 00:29:14;;;;;;;2.30;2.20;;;;;;;;;;4896954;29;20572;-69
2023/08/13 00:31:40;;;;;;;4.17;2.37;;;;;;;;;;4896814;28;20477;-68
2023/08/13 00:34:06;;;;;;;2.70;2.60;;;;;;;;;;4896280;28;20426;-67
2023/08/13 00:36:32;;;;;;;4.63;2.90;;;;;;;;;;4896888;29;21013;-68
2023/08/13 00:38:58;;;;;;;2.97;2.87;;;;;;;;;;4896965;29;20464;-68
2023/08/13 00:41:24;;;;;;;3.10;2.90;;;;;;;;;;4896794;29;20418;-68
2023/08/13 00:43:50;;;;;;;3.07;2.80;;;;;;;;;;4896394;28;20914;-68
2023/08/13 00:46:16;;;;;;;2.30;2.23;;;;;;;;;;4896800;29;20440;-69
2023/08/13 00:48:43;;;;;;;3.73;3.53;;;;;;;;;;4896403;29;20454;-67
2023/08/13 00:51:11;;;;;;;5.73;4.00;;;;;;;;;;4896685;28;20432;-67
2023/08/13 00:53:41;;;;;;;3.97;3.87;;;;;;;;;;4896274;29;20496;-68
2023/08/13 00:56:07;;;;;;;3.10;2.90;;;;;;;;;;4896592;29;20870;-67
2023/08/13 00:58:33;;;;;;;6.30;3.00;;;;;;;;;;4896545;29;20950;-69
2023/08/13 01:00:58;;;;;;;4.40;3.40;;;;;;;;;;4896370;28;20504;-68
2023/08/13 01:03:24;;;;;;;10.77;3.90;;;;;;;;;;4896168;28;21006;-68
2023/08/13 01:05:54;;;;;;;4.10;3.27;;;;;;;;;;4896112;28;20501;-68
2023/08/13 01:08:49;;;;;;;2.57;2.37;;;;;;;;;;4896381;29;20429;-68
2023/08/13 01:11:27;;;;;;;3.73;3.20;;;;;;;;;;4895774;28;20433;-68
2023/08/13 01:13:59;;;;;;;3.10;3.00;;;;;;;;;;4895889;28;20437;-69
2023/08/13 01:16:26;;;;;;;4.17;3.47;;;;;;;;;;4896412;28;20513;-68
2023/08/13 01:18:53;;;;;;;3.33;3.10;;;;;;;;;;4895149;29;20535;-67
2023/08/13 01:21:18;;;;;;;5.70;2.77;;;;;;;;;;4895416;28;20426;-67
2023/08/13 01:23:44;;;;;;;3.10;2.90;;;;;;;;;;4895027;28;20480;-68
2023/08/13 01:26:16;;;;;;;3.27;3.10;;;;;;;;;;4895303;28;20465;-68
2023/08/13 01:28:56;;;;;;;8.53;3.37;;;;;;;;;;4894690;28;20422;-69
2023/08/13 01:31:25;;;;;;;3.60;3.40;;;;;;;;;;4895260;28;20981;-68
2023/08/13 01:33:52;;;;;;;3.93;3.53;;;;;;;;;;4894596;29;20472;-68
2023/08/13 01:36:19;;;;;;;3.50;3.30;;;;;;;;;;4895276;28;20414;-67
2023/08/13 01:38:46;;;;;;;5.47;4.00;;;;;;;;;;4895180;29;20441;-68
2023/08/13 01:41:12;;;;;;;5.13;3.50;;;;;;;;;;4895245;28;20976;-71
2023/08/13 01:43:38;;;;;;;10.23;4.33;;;;;;;;;;4894889;29;20437;-69
2023/08/13 01:46:04;;;;;;;3.40;3.27;;;;;;;;;;4895182;29;20426;-72
2023/08/13 01:48:30;;;;;;;3.57;3.30;;;;;;;;;;4894829;28;20513;-69
2023/08/13 01:50:56;;;;;;;2.60;2.50;;;;;;;;;;4895169;28;20420;-69
2023/08/13 01:53:22;;;;;;;2.37;2.37;;;;;;;;;;4909147;28;20489;-69
2023/08/13 01:55:48;;;;;;;5.00;3.00;;;;;;;;;;4895097;29;20973;-71
2023/08/13 01:58:14;;;;;;;4.00;3.40;;;;;;;;;;4895033;29;20426;-70
2023/08/13 02:00:40;;;;;;;7.27;3.57;;;;;;;;;;4894877;29;20440;-68
2023/08/13 02:03:06;;;;;;;3.17;3.07;;;;;;;;;;4894685;29;20827;-71
2023/08/13 02:05:32;;;;;;;4.20;3.27;;;;;;;;;;4894658;28;20910;-69
2023/08/13 02:07:58;;;;;;;4.17;2.90;;;;;;;;;;4894855;28;20949;-71
2023/08/13 02:10:24;;;;;;;4.03;3.80;;;;;;;;;;4894804;28;20426;-69
2023/08/13 02:12:50;;;;;;;3.50;3.20;;;;;;;;;;4894475;29;20493;-70
2023/08/13 02:15:16;;;;;;;2.97;2.87;;;;;;;;;;4894828;29;20426;-71
2023/08/13 02:17:42;;;;;;;3.40;3.10;;;;;;;;;;4857150;29;1112669;-71
2023/08/13 02:20:11;;;;;;;4.57;3.00;;;;;;;;;;4895040;28;20189;-69
2023/08/13 02:22:37;;;;;;;10.47;3.40;;;;;;;;;;4895025;29;20519;-68
2023/08/13 02:25:03;;;;;;;5.53;4.13;;;;;;;;;;4895312;28;20914;-68
2023/08/13 02:27:29;;;;;;;4.80;3.60;;;;;;;;;;4895322;28;20980;-69
2023/08/13 02:29:55;;;;;;;7.90;2.97;;;;;;;;;;4895370;29;20441;-67
2023/08/13 02:32:21;;;;;;;3.93;3.80;;;;;;;;;;4894808;29;20978;-68
2023/08/13 02:34:47;;;;;;;3.47;3.37;;;;;;;;;;4894929;28;20422;-69
2023/08/13 02:37:13;;;;;;;3.13;2.93;;;;;;;;;;4895189;28;20430;-68
2023/08/13 02:39:39;;;;;;;2.90;2.80;;;;;;;;;;4895222;29;20418;-69
2023/08/13 02:42:05;;;;;;;2.50;2.40;;;;;;;;;;4893977;28;20484;-69
2023/08/13 02:44:31;;;;;;;4.20;3.43;;;;;;;;;;4894858;29;20417;-69
2023/08/13 02:46:57;;;;;;;3.90;3.50;;;;;;;;;;4895217;28;20480;-69
2023/08/13 02:49:23;;;;;;;4.10;3.27;;;;;;;;;;4894812;29;20449;-69
2023/08/13 02:51:49;;;;;;;3.87;3.50;;;;;;;;;;4894934;28;20516;-69
2023/08/13 02:54:15;;;;;;;3.70;3.53;;;;;;;;;;4894717;29;21001;-69
2023/08/13 02:56:42;;;;;;;3.83;3.53;;;;;;;;;;4894970;28;20657;-68
2023/08/13 02:59:08;;;;;;;4.10;3.80;;;;;;;;;;4895079;28;20383;-68
2023/08/13 03:01:34;;;;;;;4.00;3.80;;;;;;;;;;4894792;28;20839;-69
2023/08/13 03:04:03;;;;;;;10.80;4.80;;;;;;;;;;4894224;28;20580;-70
2023/08/13 03:06:29;;;;;;;4.20;3.80;;;;;;;;;;4894915;29;20708;-69
2023/08/13 03:08:55;;;;;;;4.00;3.70;;;;;;;;;;4894820;28;20513;-67
2023/08/13 03:11:21;;;;;;;3.40;3.10;;;;;;;;;;4894775;28;20430;-68
2023/08/13 03:13:47;;;;;;;2.80;2.70;;;;;;;;;;4894483;28;20433;-70
2023/08/13 03:16:13;;;;;;;3.17;2.77;;;;;;;;;;4894861;28;20420;-71
2023/08/13 03:18:39;;;;;;;13.70;4.10;;;;;;;;;;4894213;28;20473;-69
2023/08/13 03:21:05;;;;;;;3.27;3.07;;;;;;;;;;4894795;28;20422;-68
2023/08/13 03:23:32;;;;;;;3.03;2.73;;;;;;;;;;4894504;28;20480;-68
2023/08/13 03:25:58;;;;;;;2.57;2.47;;;;;;;;;;4894713;28;20197;-69
2023/08/13 03:28:24;;;;;;;3.83;3.17;;;;;;;;;;4894561;28;20488;-69
2023/08/13 03:30:50;;;;;;;2.90;2.80;;;;;;;;;;4894579;28;20417;-69
2023/08/13 03:33:16;;;;;;;3.20;3.10;;;;;;;;;;4893871;29;20481;-71
2023/08/13 03:35:42;;;;;;;2.83;2.73;;;;;;;;;;4894551;28;20418;-68
2023/08/13 03:38:08;;;;;;;2.90;2.70;;;;;;;;;;4894631;28;20914;-71
2023/08/13 03:40:38;;;;;;;6.10;3.70;;;;;;;;;;4894611;28;20421;-69
2023/08/13 03:43:04;;;;;;;11.73;3.97;;;;;;;;;;4894080;28;20934;-67
2023/08/13 03:45:30;;;;;;;3.27;3.07;;;;;;;;;;4894525;29;20426;-70
2023/08/13 03:47:56;;;;;;;3.37;3.27;;;;;;;;;;4894495;28;20954;-69
2023/08/13 03:50:22;;;;;;;6.13;3.10;;;;;;;;;;4894119;29;20418;-68
2023/08/13 03:52:48;;;;;;;3.43;2.90;;;;;;;;;;4895450;29;20516;-69
2023/08/13 03:55:14;;;;;;;3.63;3.40;;;;;;;;;;4897350;29;20418;-69
2023/08/13 03:57:40;;;;;;;2.83;2.80;;;;;;;;;;4897522;29;20477;-67
2023/08/13 04:00:06;;;;;;;4.33;4.03;;;;;;;;;;4897338;28;20417;-67
2023/08/13 04:02:33;;;;;;;4.33;3.63;;;;;;;;;;4897068;28;20440;-68
2023/08/13 04:04:59;;;;;;;3.70;3.43;;;;;;;;;;4897036;28;20520;-67
2023/08/13 04:07:25;;;;;;;3.53;3.33;;;;;;;;;;4897344;29;20922;-67
2023/08/13 04:09:51;;;;;;;3.03;3.03;;;;;;;;;;4897357;28;20429;-67
2023/08/13 04:12:17;;;;;;;4.77;3.27;;;;;;;;;;4896889;28;20225;-68
2023/08/13 04:14:43;;;;;;;3.07;2.87;;;;;;;;;;4897314;28;20477;-68
2023/08/13 04:17:09;;;;;;;1.43;1.43;;;;;;;;;;4897167;28;20911;-68
2023/08/13 04:19:35;;;;;;;3.23;2.87;;;;;;;;;;4896837;28;20434;-67
2023/08/13 04:22:01;;;;;;;8.40;3.77;;;;;;;;;;4897229;29;20178;-67
2023/08/13 04:24:27;;;;;;;2.47;2.27;;;;;;;;;;4896814;29;20189;-68
2023/08/13 04:26:53;;;;;;;3.03;2.83;;;;;;;;;;4897120;29;20426;-69
2023/08/13 04:29:19;;;;;;;4.87;3.30;;;;;;;;;;4897009;29;20468;-67
2023/08/13 04:31:45;;;;;;;3.70;3.40;;;;;;;;;;4896897;29;20477;-68
2023/08/13 04:34:11;;;;;;;3.13;2.90;;;;;;;;;;4896259;28;20189;-68
2023/08/13 04:36:37;;;;;;;3.17;3.07;;;;;;;;;;4896973;28;20513;-68
2023/08/13 04:39:03;;;;;;;3.10;2.90;;;;;;;;;;4896946;28;20426;-69
2023/08/13 04:41:29;;;;;;;6.03;3.30;;;;;;;;;;4896841;28;20433;-68
2023/08/13 04:43:55;;;;;;;2.80;2.20;;;;;;;;;;4896553;28;20520;-68
2023/08/13 04:46:21;;;;;;;3.13;2.93;;;;;;;;;;4896919;28;20513;-67
2023/08/13 04:48:48;;;;;;;2.30;2.30;;;;;;;;;;4896369;28;20430;-70
2023/08/13 04:51:18;;;;;;;3.70;3.03;;;;;;;;;;4896694;29;20677;-69
2023/08/13 04:53:44;;;;;;;3.57;3.40;;;;;;;;;;4896273;29;20492;-69
2023/08/13 04:56:10;;;;;;;4.27;3.90;;;;;;;;;;4896637;28;20508;-67
2023/08/13 04:58:36;;;;;;;4.27;4.00;;;;;;;;;;4896562;29;20433;-67
2023/08/13 05:01:03;;;;;;;2.70;2.60;;;;;;;;;;4896380;28;20426;-67
2023/08/13 05:03:29;;;;;;;3.50;3.40;;;;;;;;;;4895058;28;20434;-67
2023/08/13 05:05:55;;;;;;;4.37;4.03;;;;;;;;;;4896257;28;20425;-67
2023/08/13 05:08:21;;;;;;;3.73;3.53;;;;;;;;;;4892417;28;20910;-66
2023/08/13 05:10:47;;;;;;;3.93;3.73;;;;;;;;;;4895731;28;20513;-66
2023/08/13 05:13:16;;;;;;;3.17;3.07;;;;;;;;;;4928527;28;20485;-66
2023/08/13 05:15:42;;;;;;;11.00;4.10;;;;;;;;;;4974845;28;20418;-67
2023/08/13 05:18:08;;;;;;;8.23;4.90;;;;;;;;;;4974609;28;20993;-66
2023/08/13 05:20:34;;;;;;;5.13;4.33;;;;;;;;;;4973653;28;20442;-67
2023/08/13 05:23:00;;;;;;;4.20;3.77;;;;;;;;;;4974609;28;20440;-67
2023/08/13 05:25:26;;;;;;;4.03;3.83;;;;;;;;;;4939862;28;20925;-67
2023/08/13 05:27:52;;;;;;;5.50;4.20;;;;;;;;;;4895844;29;20429;-67
2023/08/13 05:30:19;;;;;;;25.80;4.77;;;;;;;;;;4895711;29;20910;-73
2023/08/13 05:32:46;;;;;;;4.40;4.10;;;;;;;;;;4893952;29;20486;-73
2023/08/13 05:35:12;;;;;;;4.60;4.40;;;;;;;;;;4887820;28;20528;-72
2023/08/13 05:37:38;;;;;;;4.47;4.23;;;;;;;;;;4894949;28;20857;-71
2023/08/13 05:40:04;;;;;;;7.43;4.07;;;;;;;;;;4881898;28;20425;-72
2023/08/13 05:42:30;;;;;;;6.20;4.70;;;;;;;;;;4895583;29;20544;-73
2023/08/13 05:44:56;;;;;;;5.20;4.70;;;;;;;;;;4913843;28;20514;-72
2023/08/13 05:47:22;;;;;;;10.97;4.23;;;;;;;;;;4894782;29;20426;-73
2023/08/13 05:49:48;;;;;;;5.83;5.33;;;;;;;;;;4894869;28;20445;-72
2023/08/13 05:52:14;;;;;;;4.87;4.57;;;;;;;;;;4895284;28;20521;-73
2023/08/13 05:54:40;;;;;;;5.37;5.00;;;;;;;;;;4895240;28;20826;-71
2023/08/13 05:57:06;;;;;;;5.83;5.30;;;;;;;;;;4895088;29;20449;-73
2023/08/13 05:59:33;;;;;;;6.00;5.60;;;;;;;;;;4895430;28;20429;-67
2023/08/13 06:01:59;;;;;;;13.37;8.10;;;;;;;;;;4894122;28;20438;-73
2023/08/13 06:04:25;;;;;;;10.53;7.90;;;;;;;;;;4893502;28;20467;-73
2023/08/13 06:06:51;;;;;;;5.93;5.30;;;;;;;;;;4894955;28;20942;-70
2023/08/13 06:09:16;;;;;;;5.03;4.63;;;;;;;;;;4895067;28;20661;-73
2023/08/13 06:11:42;;;;;;;8.17;4.80;;;;;;;;;;4895298;29;21132;-71
2023/08/13 06:14:08;;;;;;;4.10;3.83;;;;;;;;;;4893712;28;20422;-72
2023/08/13 06:16:35;;;;;;;3.60;3.30;;;;;;;;;;4894568;28;20441;-73
2023/08/13 06:19:01;;;;;;;3.87;3.77;;;;;;;;;;4894646;28;20469;-71
2023/08/13 06:21:27;;;;;;;4.13;3.47;;;;;;;;;;4891349;28;20437;-70
2023/08/13 06:23:53;;;;;;;4.20;3.90;;;;;;;;;;4894230;28;20973;-70
2023/08/13 06:26:19;;;;;;;3.77;3.50;;;;;;;;;;4894866;29;20437;-72
2023/08/13 06:28:45;;;;;;;4.93;2.97;;;;;;;;;;4893522;29;20492;-69
2023/08/13 06:31:11;;;;;;;4.10;3.03;;;;;;;;;;4893880;29;20448;-72
2023/08/13 06:33:37;;;;;;;4.00;3.70;;;;;;;;;;4894118;28;21332;-68
2023/08/13 06:36:03;;;;;;;3.63;3.20;;;;;;;;;;4895181;28;20484;-73
2023/08/13 06:38:31;;;;;;;4.20;3.93;;;;;;;;;;4894240;29;20474;-71
2023/08/13 06:41:02;;;;;;;3.37;3.13;;;;;;;;;;4895131;28;20421;-72
2023/08/13 06:43:28;;;;;;;3.07;2.90;;;;;;;;;;4894321;28;20445;-69
2023/08/13 06:45:54;;;;;;;3.53;3.30;;;;;;;;;;4895112;28;20813;-70
2023/08/13 06:48:20;;;;;;;3.33;3.23;;;;;;;;;;4893920;28;20548;-71
2023/08/13 06:50:48;;;;;;;2.70;2.60;;;;;;;;;;4894653;28;20422;-73
2023/08/13 06:53:14;;;;;;;3.27;3.07;;;;;;;;;;4892869;28;20493;-72
2023/08/13 06:55:40;;;;;;;3.00;2.90;;;;;;;;;;4893567;28;20417;-72
2023/08/13 06:58:06;;;;;;;2.40;2.40;;;;;;;;;;4893631;29;20445;-71
2023/08/13 07:00:33;;;;;;;2.70;2.20;;;;;;;;;;4894082;29;20452;-72
2023/08/13 07:02:59;;;;;;;2.77;2.50;;;;;;;;;;4892504;28;20734;-73
2023/08/13 07:05:25;;;;;;;2.60;2.50;;;;;;;;;;4893796;28;20441;-71
2023/08/13 07:07:51;;;;;;;2.43;2.23;;;;;;;;;;4894250;29;20449;-74
2023/08/13 07:10:17;;;;;;;2.97;2.33;;;;;;;;;;4894844;29;21010;-69
2023/08/13 07:12:43;;;;;;;1.97;1.97;;;;;;;;;;4894471;28;20596;-71
2023/08/13 07:15:09;;;;;;;1.83;1.83;;;;;;;;;;4894676;28;20957;-72
2023/08/13 07:17:35;;;;;;;5.77;3.30;;;;;;;;;;4894112;28;20462;-71
2023/08/13 07:20:04;;;;;;;12.20;2.30;;;;;;;;;;4894870;28;20426;-71
2023/08/13 07:22:30;;;;;;;2.93;2.10;;;;;;;;;;4893820;28;20483;-70
2023/08/13 07:24:56;;;;;;;2.27;2.10;;;;;;;;;;4894665;28;20445;-70
2023/08/13 07:27:23;;;;;;;1.93;1.90;;;;;;;;;;4895304;28;20437;-71
2023/08/13 07:29:49;;;;;;;2.30;2.10;;;;;;;;;;4897959;28;20500;-71
2023/08/13 07:32:15;;;;;;;1.50;1.50;;;;;;;;;;4897368;28;20485;-71
2023/08/13 07:34:41;;;;;;;1.60;1.50;;;;;;;;;;4894938;28;20445;-72
2023/08/13 07:37:07;;;;;;;2.00;1.90;;;;;;;;;;4896436;28;20524;-72
2023/08/13 07:39:33;;;;;;;1.60;1.60;;;;;;;;;;4897730;28;20754;-73
2023/08/13 07:42:00;;;;;;;2.20;2.10;;;;;;;;;;4884712;28;20418;-72
2023/08/13 07:44:27;;;;;;;7.87;2.47;;;;;;;;;;4883385;28;20422;-70
2023/08/13 07:46:56;;;;;;;1.90;1.90;;;;;;;;;;4896315;28;20425;-71
2023/08/13 07:49:22;;;;;;;4.77;2.13;;;;;;;;;;4897205;28;20409;-69
2023/08/13 07:51:48;;;;;;;1.83;1.83;;;;;;;;;;4896695;28;20481;-70
2023/08/13 07:54:14;;;;;;;2.97;1.97;;;;;;;;;;4896696;28;20441;-70
2023/08/13 07:56:39;;;;;;;5.87;1.50;;;;;;;;;;4897167;28;20461;-71
2023/08/13 07:59:05;;;;;;;1.60;1.50;;;;;;;;;;4897187;28;21016;-72
2023/08/13 08:01:31;;;;;;;1.30;1.23;;;;;;;;;;4911569;28;20949;-71
2023/08/13 08:03:57;;;;;;;1.77;1.67;;;;;;;;;;4910868;28;20803;-72
2023/08/13 08:06:23;;;;;;;1.37;1.37;;;;;;;;;;4896996;28;20520;-72
2023/08/13 08:08:49;;;;;;;1.83;1.83;;;;;;;;;;4897061;28;20872;-71
2023/08/13 08:11:15;;;;;;;1.37;1.37;;;;;;;;;;4896465;29;20557;-72
2023/08/13 08:13:42;;;;;;;1.57;1.47;;;;;;;;;;4895181;28;20488;-70
2023/08/13 08:16:08;;;;;;;0.97;0.90;;;;;;;;;;4965582;28;20519;-70
2023/08/13 08:18:34;;;;;;;1.67;1.67;;;;;;;;;;4916483;28;20961;-70
2023/08/13 08:21:00;;;;;;;1.37;1.37;;;;;;;;;;4896417;28;20434;-72
2023/08/13 08:23:26;;;;;;;2.47;2.37;;;;;;;;;;4896500;28;20424;-72
2023/08/13 08:25:52;;;;;;;1.60;1.30;;;;;;;;;;4896694;29;20181;-70
2023/08/13 08:28:18;;;;;;;2.50;2.00;;;;;;;;;;4896656;29;20481;-71
2023/08/13 08:30:44;;;;;;;1.77;1.67;;;;;;;;;;4895840;28;20424;-71
2023/08/13 08:33:10;;;;;;;1.37;1.37;;;;;;;;;;4895802;29;20481;-71
2023/08/13 08:35:36;;;;;;;1.30;1.30;;;;;;;;;;4896856;28;20664;-70
2023/08/13 08:38:02;;;;;;;1.80;1.80;;;;;;;;;;4896513;28;20457;-71
2023/08/13 08:40:28;;;;;;;1.83;1.70;;;;;;;;;;4896917;29;20809;-72
2023/08/13 08:42:54;;;;;;;3.00;1.60;;;;;;;;;;4895276;29;20544;-72
2023/08/13 08:45:22;;;;;;;2.17;1.97;;;;;;;;;;4896761;28;20425;-72
2023/08/13 08:47:51;;;;;;;2.20;2.00;;;;;;;;;;4895752;28;20934;-71
2023/08/13 08:50:17;;;;;;;6.23;1.60;;;;;;;;;;4896924;28;20438;-72
2023/08/13 08:52:43;;;;;;;2.97;1.93;;;;;;;;;;4895067;29;20487;-73
2023/08/13 08:55:13;;;;;;;1.73;1.63;;;;;;;;;;4896506;28;20461;-72
2023/08/13 08:57:39;;;;;;;3.13;1.97;;;;;;;;;;4896608;28;20481;-73
2023/08/13 09:00:06;;;;;;;4.53;1.87;;;;;;;;;;4896228;28;20442;-74
2023/08/13 09:02:32;;;;;;;4.10;3.90;;;;;;;;;;4895306;28;20852;-73
2023/08/13 09:04:58;;;;;;;1.80;1.73;;;;;;;;;;4896456;28;20980;-72
2023/08/13 09:07:34;;;;;;;2.10;2.00;;;;;;;;;;4896445;28;20437;-73
2023/08/13 09:10:02;;;;;;;7.90;1.50;;;;;;;;;;4896431;29;20792;-71
2023/08/13 09:12:34;;;;;;;1.30;1.30;;;;;;;;;;4896018;28;20977;-71
2023/08/13 09:15:03;;;;;;;2.00;1.90;;;;;;;;;;4896469;29;20836;-75
2023/08/13 09:17:30;;;;;;;1.43;1.33;;;;;;;;;;4895874;28;20426;-72
2023/08/13 09:19:56;;;;;;;5.63;1.57;;;;;;;;;;4890493;28;20553;-72
2023/08/13 09:22:22;;;;;;;1.70;1.60;;;;;;;;;;4890560;28;20437;-71
2023/08/13 09:24:49;;;;;;;2.30;1.70;;;;;;;;;;4893560;28;20856;-73
2023/08/13 09:27:15;;;;;;;4.53;1.97;;;;;;;;;;4894853;28;20524;-74
2023/08/13 09:29:41;;;;;;;2.40;1.90;;;;;;;;;;4898366;28;20432;-67
2023/08/13 09:32:07;;;;;;;2.17;2.17;;;;;;;;;;4969675;28;20474;-70
2023/08/13 09:34:34;;;;;;;3.70;1.83;;;;;;;;;;4975179;28;20422;-73
2023/08/13 09:37:00;;;;;;;1.97;1.87;;;;;;;;;;4974630;28;20416;-73
2023/08/13 09:39:27;;;;;;;2.00;1.90;;;;;;;;;;4909566;28;20933;-73
2023/08/13 09:41:53;;;;;;;4.50;1.83;;;;;;;;;;4895810;28;20788;-72
2023/08/13 09:44:20;;;;;;;1.87;1.87;;;;;;;;;;4898384;28;20797;-72
2023/08/13 09:46:49;;;;;;;1.80;1.80;;;;;;;;;;4895296;28;20422;-72
2023/08/13 09:49:16;;;;;;;1.60;1.50;;;;;;;;;;4894603;28;20500;-73
2023/08/13 09:51:43;;;;;;;5.00;2.10;;;;;;;;;;4895165;28;20934;-71
2023/08/13 09:54:13;;;;;;;2.30;2.20;;;;;;;;;;4893765;29;20438;-73
2023/08/13 09:56:40;;;;;;;2.63;2.40;;;;;;;;;;4894873;28;20432;-73
2023/08/13 09:59:07;;;;;;;2.57;2.10;;;;;;;;;;4894819;28;20851;-73
2023/08/13 10:01:33;;;;;;;2.73;2.17;;;;;;;;;;4895387;28;20430;-73
2023/08/13 10:04:00;;;;;;;2.27;2.17;;;;;;;;;;4894423;28;20418;-74
2023/08/13 10:06:26;;;;;;;1.47;1.47;;;;;;;;;;4894538;28;20426;-72
2023/08/13 10:08:52;;;;;;;2.37;2.07;;;;;;;;;;4895320;29;20433;-72
2023/08/13 10:11:19;;;;;;;1.43;1.33;;;;;;;;;;4895503;29;20429;-73
2023/08/13 10:13:46;;;;;;;2.00;2.00;;;;;;;;;;4894825;29;20477;-73
2023/08/13 10:16:12;;;;;;;2.00;1.80;;;;;;;;;;4894983;28;20436;-73
2023/08/13 10:18:38;;;;;;;2.30;2.20;;;;;;;;;;4894597;28;20954;-73
2023/08/13 10:21:04;;;;;;;1.83;1.83;;;;;;;;;;4893975;29;20437;-73
2023/08/13 10:23:30;;;;;;;2.80;2.00;;;;;;;;;;4894792;28;20429;-73
2023/08/13 10:25:56;;;;;;;2.33;1.63;;;;;;;;;;4894579;29;20429;-73
2023/08/13 10:28:32;;;;;;;2.80;2.00;;;;;;;;;;4894961;28;20434;-73
2023/08/13 10:31:17;;;;;;;1.87;1.87;;;;;;;;;;4894708;28;20438;-74
2023/08/13 10:33:43;;;;;;;1.90;1.90;;;;;;;;;;4875499;29;20513;-73
2023/08/13 10:36:09;;;;;;;1.70;1.70;;;;;;;;;;4876076;28;20419;-73
2023/08/13 10:38:38;;;;;;;2.23;2.13;;;;;;;;;;4876197;29;20430;-73
2023/08/13 10:41:05;;;;;;;1.60;1.60;;;;;;;;;;4876431;28;20434;-74
2023/08/13 10:43:33;;;;;;;1.70;1.60;;;;;;;;;;4875991;28;20433;-73
2023/08/13 10:45:59;;;;;;;2.37;2.20;;;;;;;;;;4893206;28;20438;-71
2023/08/13 10:48:28;;;;;;;2.77;2.67;;;;;;;;;;4894474;28;20433;-73
2023/08/13 10:50:55;;;;;;;2.27;2.17;;;;;;;;;;4894931;28;20426;-72
2023/08/13 10:53:26;;;;;;;1.60;1.60;;;;;;;;;;4895836;28;20485;-70
2023/08/13 10:56:00;;;;;;;1.97;1.83;;;;;;;;;;4894673;28;20462;-73
2023/08/13 10:58:38;;;;;;;1.80;1.73;;;;;;;;;;4894459;28;20956;-74
2023/08/13 11:01:10;;;;;;;3.27;2.30;;;;;;;;;;4890146;28;20441;-73
2023/08/13 11:03:44;;;;;;;2.50;2.40;;;;;;;;;;4895557;28;20449;-73
2023/08/13 11:06:10;;;;;;;1.90;1.83;;;;;;;;;;4880058;28;20899;-73
2023/08/13 11:08:37;;;;;;;2.70;2.60;;;;;;;;;;4897834;29;20429;-74
2023/08/13 11:11:03;;;;;;;2.40;2.27;;;;;;;;;;4897732;29;20914;-73
2023/08/13 11:13:29;;;;;;;2.00;1.90;;;;;;;;;;4897365;28;20489;-73
2023/08/13 11:15:55;;;;;;;4.00;1.90;;;;;;;;;;4896333;28;20437;-73
2023/08/13 11:18:22;;;;;;;2.17;2.17;;;;;;;;;;4896614;28;20473;-72
2023/08/13 11:20:49;;;;;;;2.10;2.00;;;;;;;;;;4897634;29;20430;-73
2023/08/13 11:23:16;;;;;;;2.77;2.57;;;;;;;;;;4911689;28;20437;-71
2023/08/13 11:25:42;;;;;;;2.00;1.90;;;;;;;;;;4897492;29;20425;-72
2023/08/13 11:28:08;;;;;;;2.33;2.23;;;;;;;;;;4897100;28;20552;-73
2023/08/13 11:30:38;;;;;;;2.60;2.40;;;;;;;;;;4897362;28;20442;-73
2023/08/13 11:33:05;;;;;;;1.90;1.80;;;;;;;;;;4897035;28;20500;-73
2023/08/13 11:35:31;;;;;;;2.40;2.30;;;;;;;;;;4897387;28;20447;-73
2023/08/13 11:37:57;;;;;;;2.07;2.07;;;;;;;;;;4896246;29;20433;-71
2023/08/13 11:40:23;;;;;;;1.97;1.87;;;;;;;;;;4897340;28;20422;-72
2023/08/13 11:42:53;;;;;;;3.10;2.10;;;;;;;;;;4896334;28;20449;-72
2023/08/13 11:45:20;;;;;;;2.10;2.00;;;;;;;;;;4897108;28;20422;-74
2023/08/13 11:47:46;;;;;;;2.60;2.00;;;;;;;;;;4897068;28;20430;-71
2023/08/13 11:50:23;;;;;;;2.20;2.00;;;;;;;;;;4897242;28;20432;-69
2023/08/13 11:53:05;;;;;;;2.20;2.10;;;;;;;;;;4896640;28;20535;-72
2023/08/13 11:55:32;;;;;;;2.30;2.20;;;;;;;;;;4897207;28;20829;-73
2023/08/13 11:57:58;;;;;;;2.00;1.90;;;;;;;;;;4896086;29;20997;-73
2023/08/13 12:00:25;;;;;;;2.13;2.00;;;;;;;;;;4896534;29;20483;-74
2023/08/13 12:02:53;;;;;;;2.60;2.37;;;;;;;;;;4896562;28;20426;-72
2023/08/13 12:05:22;;;;;;;2.90;1.80;;;;;;;;;;4896624;29;20461;-73
2023/08/13 12:07:52;;;;;;;1.87;1.77;;;;;;;;;;4896500;28;20481;-73
2023/08/13 12:10:18;;;;;;;2.60;2.40;;;;;;;;;;4896820;28;20930;-69
2023/08/13 12:12:44;;;;;;;1.93;1.83;;;;;;;;;;4895961;28;20489;-70
2023/08/13 12:15:10;;;;;;;2.30;2.10;;;;;;;;;;4896857;28;20984;-74
2023/08/13 12:17:36;;;;;;;3.43;1.90;;;;;;;;;;4895891;29;20524;-73
2023/08/13 12:20:02;;;;;;;3.10;2.23;;;;;;;;;;4893895;28;20465;-73
2023/08/13 12:22:27;;;;;;;3.33;1.90;;;;;;;;;;4896356;28;20442;-68
2023/08/13 12:24:53;;;;;;;2.00;2.00;;;;;;;;;;4896765;28;20418;-73
2023/08/13 12:27:19;;;;;;;2.53;2.33;;;;;;;;;;4896443;29;20437;-71
2023/08/13 12:29:45;;;;;;;4.83;2.37;;;;;;;;;;4896415;28;20517;-73
2023/08/13 12:32:11;;;;;;;2.17;2.03;;;;;;;;;;4896110;28;20477;-72
2023/08/13 12:34:37;;;;;;;3.27;3.00;;;;;;;;;;4896365;28;20469;-74
2023/08/13 12:37:03;;;;;;;1.93;1.93;;;;;;;;;;4895531;28;20953;-73
2023/08/13 12:39:29;;;;;;;2.43;2.33;;;;;;;;;;4896407;29;20438;-73
2023/08/13 12:41:55;;;;;;;2.83;2.63;;;;;;;;;;4896719;29;20753;-73
2023/08/13 12:44:21;;;;;;;2.07;2.00;;;;;;;;;;4894907;28;20430;-72
2023/08/13 12:46:47;;;;;;;3.53;2.70;;;;;;;;;;4895770;28;20449;-72
2023/08/13 12:49:13;;;;;;;3.07;2.90;;;;;;;;;;4896360;28;20467;-73
2023/08/13 12:51:39;;;;;;;1.23;1.23;;;;;;;;;;4896437;28;20186;-73
2023/08/13 12:54:05;;;;;;;3.80;2.60;;;;;;;;;;4896221;28;20280;-73
2023/08/13 12:56:31;;;;;;;2.47;2.37;;;;;;;;;;4896029;28;20430;-73
2023/08/13 12:58:57;;;;;;;2.13;2.00;;;;;;;;;;4896189;28;20959;-73
2023/08/13 13:01:23;;;;;;;4.47;4.03;;;;;;;;;;4895356;28;20944;-73
2023/08/13 13:03:49;;;;;;;3.17;2.57;;;;;;;;;;4895607;28;20794;-71
2023/08/13 13:06:15;;;;;;;2.20;2.10;;;;;;;;;;4896100;29;20271;-73
2023/08/13 13:08:41;;;;;;;2.40;2.23;;;;;;;;;;4896154;28;20430;-72
2023/08/13 13:11:07;;;;;;;2.70;2.70;;;;;;;;;;4896129;28;20425;-72
2023/08/13 13:13:33;;;;;;;2.23;2.13;;;;;;;;;;4895977;28;20501;-71
2023/08/13 13:15:59;;;;;;;2.10;2.10;;;;;;;;;;4896089;28;20432;-71
2023/08/13 13:18:24;;;;;;;2.00;1.97;;;;;;;;;;4895962;28;20477;-70
2023/08/13 13:20:50;;;;;;;2.10;2.00;;;;;;;;;;4896296;28;20436;-71
2023/08/13 13:23:16;;;;;;;2.40;2.20;;;;;;;;;;4894686;28;20422;-72
2023/08/13 13:25:42;;;;;;;2.93;2.10;;;;;;;;;;4895295;28;20754;-68
2023/08/13 13:28:08;;;;;;;2.17;2.17;;;;;;;;;;4894746;28;20438;-72
2023/08/13 13:30:34;;;;;;;2.27;2.17;;;;;;;;;;4917402;28;20425;-72
2023/08/13 13:33:01;;;;;;;2.17;2.07;;;;;;;;;;4895315;29;21423;-67
2023/08/13 13:35:28;;;;;;;2.17;2.10;;;;;;;;;;4895950;28;20422;-73
2023/08/13 13:37:55;;;;;;;3.00;2.50;;;;;;;;;;4896037;28;20426;-72
2023/08/13 13:40:21;;;;;;;1.97;1.97;;;;;;;;;;4891507;28;20458;-71
2023/08/13 13:42:49;;;;;;;1.53;1.43;;;;;;;;;;4895110;28;20441;-67
2023/08/13 13:45:15;;;;;;;6.50;2.07;;;;;;;;;;4894946;28;20970;-73
2023/08/13 13:47:41;;;;;;;1.60;1.60;;;;;;;;;;4891996;29;20438;-72
2023/08/13 13:50:07;;;;;;;2.87;2.20;;;;;;;;;;4892091;28;20437;-72
2023/08/13 13:52:33;;;;;;;1.80;1.70;;;;;;;;;;4894960;29;20478;-72
2023/08/13 13:54:59;;;;;;;1.90;1.80;;;;;;;;;;4895695;28;20426;-67
2023/08/13 13:57:26;;;;;;;2.30;2.10;;;;;;;;;;4894717;28;20421;-68
2023/08/13 13:59:52;;;;;;;1.70;1.60;;;;;;;;;;4894596;28;20487;-73
2023/08/13 14:02:18;;;;;;;1.67;1.57;;;;;;;;;;4893363;28;20520;-74
2023/08/13 14:04:44;;;;;;;1.63;1.63;;;;;;;;;;4891395;28;20445;-74
2023/08/13 14:07:10;;;;;;;1.50;1.50;;;;;;;;;;4895192;28;20441;-71
2023/08/13 14:09:36;;;;;;;2.43;1.30;;;;;;;;;;4894623;28;20977;-70
2023/08/13 14:12:02;;;;;;;1.97;1.87;;;;;;;;;;4894881;28;20488;-72
2023/08/13 14:14:28;;;;;;;3.90;2.13;;;;;;;;;;4894992;28;20769;-68
2023/08/13 14:16:54;;;;;;;2.07;1.93;;;;;;;;;;4894606;28;20430;-70
2023/08/13 14:19:20;;;;;;;3.47;1.70;;;;;;;;;;4893899;28;20974;-69
2023/08/13 14:21:46;;;;;;;1.97;1.97;;;;;;;;;;4894873;29;20450;-70
2023/08/13 14:24:12;;;;;;;4.13;1.90;;;;;;;;;;4894836;28;20430;-72
2023/08/13 14:26:38;;;;;;;1.77;1.67;;;;;;;;;;4895528;28;20424;-73
2023/08/13 14:29:04;;;;;;;1.77;1.77;;;;;;;;;;4894949;28;20496;-73
2023/08/13 14:31:30;;;;;;;1.77;1.77;;;;;;;;;;4894320;29;20534;-71
2023/08/13 14:33:56;;;;;;;1.20;1.20;;;;;;;;;;4894952;29;20496;-72
2023/08/13 14:36:22;;;;;;;1.40;1.30;;;;;;;;;;4895217;28;20414;-72
2023/08/13 14:38:48;;;;;;;5.40;1.87;;;;;;;;;;4895017;28;20441;-73